sensor_id;sensor_type;location;lat;lon;timestamp;P1;durP1;ratioP1;P2;durP2;ratioP2
24751;SDS011;27246;52.376;4.628;2023-02-28T00:04:05;4.28;;;2.60;;
24751;SDS011;27246;52.376;4.628;2023-02-28T00:09:07;6.55;;;2.70;;
24751;SDS011;27246;52.376;4.628;2023-02-28T00:14:08;4.70;;;2.42;;
24751;SDS011;27246;52.376;4.628;2023-02-28T00:19:10;5.18;;;2.42;;
24751;SDS011;27246;52.376;4.628;2023-02-28T00:24:14;7.93;;;3.17;;
24751;SDS011;27246;52.376;4.628;2023-02-28T00:29:16;4.82;;;2.42;;
24751;SDS011;27246;52.376;4.628;2023-02-28T00:34:18;6.60;;;2.25;;
24751;SDS011;27246;52.376;4.628;2023-02-28T00:39:20;3.30;;;2.00;;
24751;SDS011;27246;52.376;4.628;2023-02-28T00:44:22;5.90;;;2.22;;
24751;SDS011;27246;52.376;4.628;2023-02-28T00:49:24;6.88;;;2.60;;
24751;SDS011;27246;52.376;4.628;2023-02-28T00:54:26;8.73;;;3.03;;
24751;SDS011;27246;52.376;4.628;2023-02-28T00:59:29;6.45;;;3.00;;
24751;SDS011;27246;52.376;4.628;2023-02-28T01:04:31;5.93;;;2.30;;
24751;SDS011;27246;52.376;4.628;2023-02-28T01:09:35;6.75;;;2.90;;
24751;SDS011;27246;52.376;4.628;2023-02-28T01:14:38;4.57;;;2.58;;
24751;SDS011;27246;52.376;4.628;2023-02-28T01:19:40;6.28;;;2.58;;
24751;SDS011;27246;52.376;4.628;2023-02-28T01:24:43;3.85;;;2.50;;
24751;SDS011;27246;52.376;4.628;2023-02-28T01:29:46;3.63;;;2.17;;
24751;SDS011;27246;52.376;4.628;2023-02-28T01:34:49;7.03;;;2.60;;
24751;SDS011;27246;52.376;4.628;2023-02-28T01:39:51;3.88;;;2.45;;
24751;SDS011;27246;52.376;4.628;2023-02-28T01:50:02;6.28;;;2.60;;
24751;SDS011;27246;52.376;4.628;2023-02-28T01:55:07;5.15;;;2.53;;
24751;SDS011;27246;52.376;4.628;2023-02-28T02:00:12;7.28;;;2.60;;
24751;SDS011;27246;52.376;4.628;2023-02-28T02:05:23;6.25;;;2.53;;
24751;SDS011;27246;52.376;4.628;2023-02-28T02:15:38;4.90;;;2.95;;
24751;SDS011;27246;52.376;4.628;2023-02-28T02:31:06;6.82;;;2.22;;
24751;SDS011;27246;52.376;4.628;2023-02-28T02:41:50;5.75;;;2.30;;
24751;SDS011;27246;52.376;4.628;2023-02-28T02:46:55;5.05;;;2.20;;
24751;SDS011;27246;52.376;4.628;2023-02-28T02:52:02;7.13;;;2.50;;
24751;SDS011;27246;52.376;4.628;2023-02-28T02:57:08;5.90;;;2.40;;
24751;SDS011;27246;52.376;4.628;2023-02-28T03:02:18;5.65;;;2.28;;
24751;SDS011;27246;52.376;4.628;2023-02-28T03:07:23;6.30;;;2.88;;
24751;SDS011;27246;52.376;4.628;2023-02-28T03:12:32;4.22;;;2.58;;
24751;SDS011;27246;52.376;4.628;2023-02-28T03:22:55;5.18;;;2.15;;
24751;SDS011;27246;52.376;4.628;2023-02-28T03:28:20;5.00;;;2.63;;
24751;SDS011;27246;52.376;4.628;2023-02-28T03:33:34;4.97;;;2.50;;
24751;SDS011;27246;52.376;4.628;2023-02-28T03:38:41;5.13;;;3.22;;
24751;SDS011;27246;52.376;4.628;2023-02-28T03:43:51;5.40;;;2.42;;
24751;SDS011;27246;52.376;4.628;2023-02-28T03:49:02;4.45;;;2.30;;
24751;SDS011;27246;52.376;4.628;2023-02-28T03:54:15;6.07;;;2.78;;
24751;SDS011;27246;52.376;4.628;2023-02-28T03:59:26;6.10;;;3.20;;
24751;SDS011;27246;52.376;4.628;2023-02-28T04:04:32;4.72;;;2.47;;
24751;SDS011;27246;52.376;4.628;2023-02-28T04:09:35;6.22;;;2.97;;
24751;SDS011;27246;52.376;4.628;2023-02-28T04:14:37;7.72;;;2.85;;
24751;SDS011;27246;52.376;4.628;2023-02-28T04:19:38;9.75;;;3.45;;
24751;SDS011;27246;52.376;4.628;2023-02-28T04:24:40;8.18;;;3.30;;
24751;SDS011;27246;52.376;4.628;2023-02-28T04:29:42;6.32;;;3.15;;
24751;SDS011;27246;52.376;4.628;2023-02-28T04:34:45;8.05;;;3.25;;
24751;SDS011;27246;52.376;4.628;2023-02-28T04:39:47;6.00;;;3.33;;
24751;SDS011;27246;52.376;4.628;2023-02-28T04:44:49;6.65;;;3.80;;
24751;SDS011;27246;52.376;4.628;2023-02-28T04:49:50;4.15;;;3.67;;
24751;SDS011;27246;52.376;4.628;2023-02-28T04:54:52;6.22;;;3.63;;
24751;SDS011;27246;52.376;4.628;2023-02-28T04:59:54;6.90;;;3.90;;
24751;SDS011;27246;52.376;4.628;2023-02-28T05:04:55;6.38;;;4.22;;
24751;SDS011;27246;52.376;4.628;2023-02-28T05:09:57;7.88;;;3.75;;
24751;SDS011;27246;52.376;4.628;2023-02-28T05:14:59;6.53;;;3.78;;
24751;SDS011;27246;52.376;4.628;2023-02-28T05:20:02;8.15;;;4.35;;
24751;SDS011;27246;52.376;4.628;2023-02-28T05:25:19;9.27;;;4.43;;
24751;SDS011;27246;52.376;4.628;2023-02-28T05:30:25;7.00;;;4.40;;
24751;SDS011;27246;52.376;4.628;2023-02-28T05:35:27;6.53;;;4.22;;
24751;SDS011;27246;52.376;4.628;2023-02-28T05:40:28;8.07;;;4.85;;
24751;SDS011;27246;52.376;4.628;2023-02-28T05:45:30;9.75;;;5.45;;
24751;SDS011;27246;52.376;4.628;2023-02-28T05:50:32;7.60;;;4.68;;
24751;SDS011;27246;52.376;4.628;2023-02-28T05:55:33;9.57;;;5.15;;
24751;SDS011;27246;52.376;4.628;2023-02-28T06:00:37;8.38;;;4.57;;
24751;SDS011;27246;52.376;4.628;2023-02-28T06:05:41;5.63;;;3.85;;
24751;SDS011;27246;52.376;4.628;2023-02-28T06:10:43;4.72;;;3.50;;
24751;SDS011;27246;52.376;4.628;2023-02-28T06:15:45;4.95;;;3.47;;
24751;SDS011;27246;52.376;4.628;2023-02-28T06:20:53;6.97;;;3.95;;
24751;SDS011;27246;52.376;4.628;2023-02-28T06:25:56;5.73;;;3.73;;
24751;SDS011;27246;52.376;4.628;2023-02-28T06:30:59;6.60;;;4.25;;
24751;SDS011;27246;52.376;4.628;2023-02-28T06:36:07;5.22;;;4.72;;
24751;SDS011;27246;52.376;4.628;2023-02-28T06:41:10;9.18;;;5.18;;
24751;SDS011;27246;52.376;4.628;2023-02-28T06:46:13;7.07;;;5.75;;
24751;SDS011;27246;52.376;4.628;2023-02-28T06:51:16;6.47;;;5.57;;
24751;SDS011;27246;52.376;4.628;2023-02-28T06:56:21;9.50;;;6.95;;
24751;SDS011;27246;52.376;4.628;2023-02-28T07:01:23;7.32;;;6.53;;
24751;SDS011;27246;52.376;4.628;2023-02-28T07:06:25;11.75;;;7.43;;
24751;SDS011;27246;52.376;4.628;2023-02-28T07:11:27;10.15;;;6.85;;
24751;SDS011;27246;52.376;4.628;2023-02-28T07:16:30;8.00;;;7.20;;
24751;SDS011;27246;52.376;4.628;2023-02-28T07:21:31;8.93;;;7.47;;
24751;SDS011;27246;52.376;4.628;2023-02-28T07:26:33;10.43;;;7.80;;
24751;SDS011;27246;52.376;4.628;2023-02-28T07:31:37;12.13;;;9.65;;
24751;SDS011;27246;52.376;4.628;2023-02-28T07:36:39;9.65;;;8.13;;
24751;SDS011;27246;52.376;4.628;2023-02-28T07:41:41;10.00;;;8.70;;
24751;SDS011;27246;52.376;4.628;2023-02-28T07:46:44;10.68;;;8.35;;
24751;SDS011;27246;52.376;4.628;2023-02-28T07:51:46;8.07;;;7.10;;
24751;SDS011;27246;52.376;4.628;2023-02-28T07:56:48;8.40;;;7.18;;
24751;SDS011;27246;52.376;4.628;2023-02-28T08:01:50;6.95;;;6.35;;
24751;SDS011;27246;52.376;4.628;2023-02-28T08:06:52;6.30;;;5.80;;
24751;SDS011;27246;52.376;4.628;2023-02-28T08:11:54;8.18;;;5.95;;
24751;SDS011;27246;52.376;4.628;2023-02-28T08:16:55;5.53;;;4.97;;
24751;SDS011;27246;52.376;4.628;2023-02-28T08:21:57;6.75;;;4.30;;
24751;SDS011;27246;52.376;4.628;2023-02-28T08:26:59;5.82;;;5.20;;
24751;SDS011;27246;52.376;4.628;2023-02-28T08:32:01;4.70;;;4.20;;
24751;SDS011;27246;52.376;4.628;2023-02-28T08:37:02;6.07;;;5.43;;
24751;SDS011;27246;52.376;4.628;2023-02-28T08:42:04;7.25;;;5.47;;
24751;SDS011;27246;52.376;4.628;2023-02-28T08:47:08;6.28;;;4.75;;
24751;SDS011;27246;52.376;4.628;2023-02-28T08:52:10;5.28;;;4.85;;
24751;SDS011;27246;52.376;4.628;2023-02-28T08:57:12;5.40;;;4.90;;
24751;SDS011;27246;52.376;4.628;2023-02-28T09:02:14;7.45;;;5.35;;
24751;SDS011;27246;52.376;4.628;2023-02-28T09:07:15;7.45;;;6.05;;
24751;SDS011;27246;52.376;4.628;2023-02-28T09:12:17;5.60;;;5.03;;
24751;SDS011;27246;52.376;4.628;2023-02-28T09:17:19;5.22;;;4.72;;
24751;SDS011;27246;52.376;4.628;2023-02-28T09:22:21;5.57;;;5.00;;
24751;SDS011;27246;52.376;4.628;2023-02-28T09:27:22;5.40;;;4.90;;
24751;SDS011;27246;52.376;4.628;2023-02-28T09:32:24;5.68;;;5.18;;
24751;SDS011;27246;52.376;4.628;2023-02-28T09:37:26;7.05;;;5.90;;
24751;SDS011;27246;52.376;4.628;2023-02-28T09:42:33;6.60;;;5.63;;
24751;SDS011;27246;52.376;4.628;2023-02-28T09:47:42;5.85;;;5.35;;
24751;SDS011;27246;52.376;4.628;2023-02-28T09:52:48;5.18;;;4.65;;
24751;SDS011;27246;52.376;4.628;2023-02-28T09:57:51;6.40;;;4.88;;
24751;SDS011;27246;52.376;4.628;2023-02-28T10:08:07;7.35;;;5.28;;
24751;SDS011;27246;52.376;4.628;2023-02-28T10:18:23;7.22;;;4.50;;
24751;SDS011;27246;52.376;4.628;2023-02-28T10:23:31;6.65;;;4.75;;
24751;SDS011;27246;52.376;4.628;2023-02-28T10:28:37;5.53;;;5.03;;
24751;SDS011;27246;52.376;4.628;2023-02-28T10:33:38;7.88;;;6.00;;
24751;SDS011;27246;52.376;4.628;2023-02-28T10:38:40;7.95;;;5.65;;
24751;SDS011;27246;52.376;4.628;2023-02-28T10:43:42;5.88;;;4.90;;
24751;SDS011;27246;52.376;4.628;2023-02-28T10:54:31;6.07;;;5.47;;
24751;SDS011;27246;52.376;4.628;2023-02-28T10:59:39;4.57;;;4.05;;
24751;SDS011;27246;52.376;4.628;2023-02-28T11:04:40;5.53;;;4.50;;
24751;SDS011;27246;52.376;4.628;2023-02-28T11:09:45;5.15;;;3.58;;
24751;SDS011;27246;52.376;4.628;2023-02-28T11:14:54;3.88;;;3.30;;
24751;SDS011;27246;52.376;4.628;2023-02-28T11:20:00;5.50;;;3.80;;
24751;SDS011;27246;52.376;4.628;2023-02-28T11:25:09;4.13;;;2.58;;
24751;SDS011;27246;52.376;4.628;2023-02-28T11:30:26;3.65;;;2.95;;
24751;SDS011;27246;52.376;4.628;2023-02-28T11:35:31;3.00;;;2.70;;
24751;SDS011;27246;52.376;4.628;2023-02-28T11:40:46;3.55;;;2.80;;
24751;SDS011;27246;52.376;4.628;2023-02-28T11:46:44;4.70;;;3.05;;
24751;SDS011;27246;52.376;4.628;2023-02-28T11:51:35;3.83;;;2.42;;
24751;SDS011;27246;52.376;4.628;2023-02-28T12:13:18;2.20;;;2.00;;
24751;SDS011;27246;52.376;4.628;2023-02-28T12:23:55;2.72;;;2.22;;
24751;SDS011;27246;52.376;4.628;2023-02-28T12:34:27;2.63;;;2.42;;
24751;SDS011;27246;52.376;4.628;2023-02-28T12:39:34;5.95;;;1.95;;
24751;SDS011;27246;52.376;4.628;2023-02-28T12:44:54;7.40;;;2.55;;
24751;SDS011;27246;52.376;4.628;2023-02-28T12:50:04;3.22;;;2.30;;
24751;SDS011;27246;52.376;4.628;2023-02-28T13:00:45;3.35;;;2.10;;
24751;SDS011;27246;52.376;4.628;2023-02-28T13:06:24;3.53;;;2.47;;
24751;SDS011;27246;52.376;4.628;2023-02-28T13:11:40;6.57;;;2.67;;
24751;SDS011;27246;52.376;4.628;2023-02-28T13:17:32;4.15;;;2.50;;
24751;SDS011;27246;52.376;4.628;2023-02-28T13:22:36;3.80;;;2.70;;
24751;SDS011;27246;52.376;4.628;2023-02-28T13:27:57;3.42;;;2.67;;
24751;SDS011;27246;52.376;4.628;2023-02-28T13:38:32;3.95;;;3.40;;
24751;SDS011;27246;52.376;4.628;2023-02-28T13:49:19;4.13;;;2.30;;
24751;SDS011;27246;52.376;4.628;2023-02-28T13:54:27;3.88;;;2.63;;
24751;SDS011;27246;52.376;4.628;2023-02-28T13:59:46;6.32;;;3.10;;
24751;SDS011;27246;52.376;4.628;2023-02-28T14:10:21;7.05;;;3.47;;
24751;SDS011;27246;52.376;4.628;2023-02-28T14:15:39;4.57;;;3.20;;
24751;SDS011;27246;52.376;4.628;2023-02-28T14:20:47;7.10;;;3.95;;
24751;SDS011;27246;52.376;4.628;2023-02-28T14:26:01;4.85;;;3.10;;
24751;SDS011;27246;52.376;4.628;2023-02-28T14:31:16;6.43;;;3.53;;
24751;SDS011;27246;52.376;4.628;2023-02-28T14:36:23;5.57;;;3.22;;
24751;SDS011;27246;52.376;4.628;2023-02-28T14:41:36;6.50;;;3.67;;
24751;SDS011;27246;52.376;4.628;2023-02-28T14:46:41;3.88;;;2.97;;
24751;SDS011;27246;52.376;4.628;2023-02-28T14:51:44;6.28;;;2.90;;
24751;SDS011;27246;52.376;4.628;2023-02-28T14:56:48;2.42;;;2.20;;
24751;SDS011;27246;52.376;4.628;2023-02-28T15:01:51;3.50;;;3.20;;
24751;SDS011;27246;52.376;4.628;2023-02-28T15:07:09;4.00;;;2.70;;
24751;SDS011;27246;52.376;4.628;2023-02-28T15:12:16;4.30;;;2.60;;
24751;SDS011;27246;52.376;4.628;2023-02-28T15:17:20;2.72;;;2.53;;
24751;SDS011;27246;52.376;4.628;2023-02-28T15:22:30;5.65;;;3.08;;
24751;SDS011;27246;52.376;4.628;2023-02-28T15:27:39;5.53;;;3.42;;
24751;SDS011;27246;52.376;4.628;2023-02-28T15:33:01;3.95;;;2.70;;
24751;SDS011;27246;52.376;4.628;2023-02-28T15:38:16;5.75;;;2.58;;
24751;SDS011;27246;52.376;4.628;2023-02-28T15:48:37;3.67;;;2.85;;
24751;SDS011;27246;52.376;4.628;2023-02-28T15:53:54;3.13;;;2.83;;
24751;SDS011;27246;52.376;4.628;2023-02-28T15:59:02;5.28;;;2.70;;
24751;SDS011;27246;52.376;4.628;2023-02-28T16:04:17;4.25;;;3.13;;
24751;SDS011;27246;52.376;4.628;2023-02-28T16:09:20;3.97;;;3.00;;
24751;SDS011;27246;52.376;4.628;2023-02-28T16:14:22;3.63;;;2.75;;
24751;SDS011;27246;52.376;4.628;2023-02-28T16:19:25;3.72;;;2.80;;
24751;SDS011;27246;52.376;4.628;2023-02-28T16:24:27;16.88;;;4.18;;
24751;SDS011;27246;52.376;4.628;2023-02-28T16:29:33;3.97;;;3.28;;
24751;SDS011;27246;52.376;4.628;2023-02-28T16:34:37;3.45;;;3.00;;
24751;SDS011;27246;52.376;4.628;2023-02-28T16:39:39;3.90;;;3.50;;
24751;SDS011;27246;52.376;4.628;2023-02-28T16:44:42;5.72;;;3.70;;
24751;SDS011;27246;52.376;4.628;2023-02-28T16:49:44;3.58;;;3.22;;
24751;SDS011;27246;52.376;4.628;2023-02-28T16:54:46;5.35;;;4.85;;
24751;SDS011;27246;52.376;4.628;2023-02-28T16:59:48;3.42;;;3.13;;
24751;SDS011;27246;52.376;4.628;2023-02-28T17:04:52;7.57;;;4.57;;
24751;SDS011;27246;52.376;4.628;2023-02-28T17:09:53;6.95;;;3.80;;
24751;SDS011;27246;52.376;4.628;2023-02-28T17:14:55;3.90;;;3.50;;
24751;SDS011;27246;52.376;4.628;2023-02-28T17:19:56;5.28;;;3.70;;
24751;SDS011;27246;52.376;4.628;2023-02-28T17:24:58;4.78;;;3.67;;
24751;SDS011;27246;52.376;4.628;2023-02-28T17:30:00;6.40;;;4.53;;
24751;SDS011;27246;52.376;4.628;2023-02-28T17:35:02;5.53;;;4.55;;
24751;SDS011;27246;52.376;4.628;2023-02-28T17:40:04;8.07;;;6.07;;
24751;SDS011;27246;52.376;4.628;2023-02-28T17:45:06;7.93;;;3.83;;
24751;SDS011;27246;52.376;4.628;2023-02-28T17:50:12;8.25;;;5.47;;
24751;SDS011;27246;52.376;4.628;2023-02-28T17:55:17;6.18;;;4.85;;
24751;SDS011;27246;52.376;4.628;2023-02-28T18:00:20;8.77;;;6.18;;
24751;SDS011;27246;52.376;4.628;2023-02-28T18:05:25;14.00;;;9.68;;
24751;SDS011;27246;52.376;4.628;2023-02-28T18:10:27;11.20;;;6.57;;
24751;SDS011;27246;52.376;4.628;2023-02-28T18:15:28;10.85;;;6.95;;
24751;SDS011;27246;52.376;4.628;2023-02-28T18:20:30;7.13;;;6.25;;
24751;SDS011;27246;52.376;4.628;2023-02-28T18:25:32;7.53;;;5.65;;
24751;SDS011;27246;52.376;4.628;2023-02-28T18:30:35;14.95;;;8.75;;
24751;SDS011;27246;52.376;4.628;2023-02-28T18:35:37;43.65;;;28.10;;
24751;SDS011;27246;52.376;4.628;2023-02-28T18:40:40;30.17;;;16.98;;
24751;SDS011;27246;52.376;4.628;2023-02-28T18:45:43;25.73;;;16.30;;
24751;SDS011;27246;52.376;4.628;2023-02-28T18:50:45;24.13;;;17.58;;
24751;SDS011;27246;52.376;4.628;2023-02-28T18:55:47;22.25;;;15.75;;
24751;SDS011;27246;52.376;4.628;2023-02-28T19:00:49;23.40;;;19.75;;
24751;SDS011;27246;52.376;4.628;2023-02-28T19:05:54;19.98;;;16.77;;
24751;SDS011;27246;52.376;4.628;2023-02-28T19:10:57;9.77;;;8.65;;
24751;SDS011;27246;52.376;4.628;2023-02-28T19:16:01;9.18;;;7.15;;
24751;SDS011;27246;52.376;4.628;2023-02-28T19:21:08;13.15;;;10.70;;
24751;SDS011;27246;52.376;4.628;2023-02-28T19:26:29;10.25;;;8.63;;
24751;SDS011;27246;52.376;4.628;2023-02-28T19:31:31;11.75;;;9.57;;
24751;SDS011;27246;52.376;4.628;2023-02-28T19:36:34;9.85;;;8.40;;
24751;SDS011;27246;52.376;4.628;2023-02-28T19:41:36;10.18;;;8.88;;
24751;SDS011;27246;52.376;4.628;2023-02-28T19:46:37;13.30;;;9.73;;
24751;SDS011;27246;52.376;4.628;2023-02-28T19:51:39;17.10;;;11.38;;
24751;SDS011;27246;52.376;4.628;2023-02-28T19:56:41;15.90;;;11.90;;
24751;SDS011;27246;52.376;4.628;2023-02-28T20:01:43;15.23;;;12.05;;
24751;SDS011;27246;52.376;4.628;2023-02-28T20:06:44;22.40;;;14.90;;
24751;SDS011;27246;52.376;4.628;2023-02-28T20:11:46;17.98;;;13.93;;
24751;SDS011;27246;52.376;4.628;2023-02-28T20:16:48;15.43;;;10.95;;
24751;SDS011;27246;52.376;4.628;2023-02-28T20:21:50;16.55;;;11.77;;
24751;SDS011;27246;52.376;4.628;2023-02-28T20:26:51;14.07;;;12.05;;
24751;SDS011;27246;52.376;4.628;2023-02-28T20:31:53;13.35;;;10.65;;
24751;SDS011;27246;52.376;4.628;2023-02-28T20:36:56;16.63;;;9.98;;
24751;SDS011;27246;52.376;4.628;2023-02-28T20:41:59;15.02;;;10.45;;
24751;SDS011;27246;52.376;4.628;2023-02-28T20:47:00;10.88;;;9.77;;
24751;SDS011;27246;52.376;4.628;2023-02-28T20:52:02;12.80;;;10.10;;
24751;SDS011;27246;52.376;4.628;2023-02-28T20:57:03;16.17;;;11.80;;
24751;SDS011;27246;52.376;4.628;2023-02-28T21:02:05;16.40;;;11.85;;
24751;SDS011;27246;52.376;4.628;2023-02-28T21:07:07;14.43;;;11.38;;
24751;SDS011;27246;52.376;4.628;2023-02-28T21:12:09;12.25;;;10.95;;
24751;SDS011;27246;52.376;4.628;2023-02-28T21:17:11;14.98;;;12.07;;
24751;SDS011;27246;52.376;4.628;2023-02-28T21:22:12;13.70;;;12.15;;
24751;SDS011;27246;52.376;4.628;2023-02-28T21:27:14;20.85;;;17.77;;
24751;SDS011;27246;52.376;4.628;2023-02-28T21:32:16;24.05;;;20.88;;
24751;SDS011;27246;52.376;4.628;2023-02-28T21:37:18;23.23;;;20.52;;
24751;SDS011;27246;52.376;4.628;2023-02-28T21:42:20;25.30;;;21.23;;
24751;SDS011;27246;52.376;4.628;2023-02-28T21:47:22;23.92;;;20.70;;
24751;SDS011;27246;52.376;4.628;2023-02-28T21:52:24;24.52;;;18.50;;
24751;SDS011;27246;52.376;4.628;2023-02-28T21:57:26;22.50;;;18.33;;
24751;SDS011;27246;52.376;4.628;2023-02-28T22:02:28;16.83;;;14.95;;
24751;SDS011;27246;52.376;4.628;2023-02-28T22:07:30;16.55;;;14.80;;
24751;SDS011;27246;52.376;4.628;2023-02-28T22:12:32;16.38;;;13.35;;
24751;SDS011;27246;52.376;4.628;2023-02-28T22:17:34;16.63;;;13.13;;
24751;SDS011;27246;52.376;4.628;2023-02-28T22:22:35;21.80;;;14.80;;
24751;SDS011;27246;52.376;4.628;2023-02-28T22:27:37;16.00;;;13.02;;
24751;SDS011;27246;52.376;4.628;2023-02-28T22:32:39;15.35;;;12.98;;
24751;SDS011;27246;52.376;4.628;2023-02-28T22:37:40;15.02;;;11.85;;
24751;SDS011;27246;52.376;4.628;2023-02-28T22:42:42;13.88;;;11.85;;
24751;SDS011;27246;52.376;4.628;2023-02-28T22:47:46;13.20;;;11.68;;
24751;SDS011;27246;52.376;4.628;2023-02-28T22:52:49;12.68;;;10.75;;
24751;SDS011;27246;52.376;4.628;2023-02-28T22:57:51;10.95;;;9.85;;
24751;SDS011;27246;52.376;4.628;2023-02-28T23:02:53;11.55;;;10.45;;
24751;SDS011;27246;52.376;4.628;2023-02-28T23:07:54;11.52;;;10.32;;
24751;SDS011;27246;52.376;4.628;2023-02-28T23:12:56;12.20;;;10.35;;
24751;SDS011;27246;52.376;4.628;2023-02-28T23:17:58;11.98;;;10.48;;
24751;SDS011;27246;52.376;4.628;2023-02-28T23:22:59;10.77;;;9.70;;
24751;SDS011;27246;52.376;4.628;2023-02-28T23:28:01;11.27;;;10.07;;
24751;SDS011;27246;52.376;4.628;2023-02-28T23:33:03;10.57;;;9.48;;
24751;SDS011;27246;52.376;4.628;2023-02-28T23:38:06;12.25;;;9.60;;
24751;SDS011;27246;52.376;4.628;2023-02-28T23:43:08;11.95;;;9.35;;
24751;SDS011;27246;52.376;4.628;2023-02-28T23:48:09;10.30;;;9.23;;
24751;SDS011;27246;52.376;4.628;2023-02-28T23:53:12;14.48;;;10.15;;
24751;SDS011;27246;52.376;4.628;2023-02-28T23:58:14;13.55;;;10.38;;
